createdAt,value
2022-08-17T00:01:51.795Z,100310.34
2022-08-17T00:04:20.439Z,100305.31
2022-08-17T00:06:49.295Z,100303.22
2022-08-17T00:09:18.258Z,100311.88
2022-08-17T00:12:41.996Z,100305.38
2022-08-17T00:14:36.351Z,100321.59
2022-08-17T00:17:04.836Z,100310.63
2022-08-17T00:19:33.011Z,100315.41
2022-08-17T00:22:31.004Z,100314.38
2022-08-17T00:24:50.723Z,100310.34
2022-08-17T00:27:18.829Z,100311.38
2022-08-17T00:29:46.159Z,100299.03
2022-08-17T00:33:14.033Z,100322.91
2022-08-17T00:35:05.599Z,100312.16
2022-08-17T00:37:32.844Z,100312.44
2022-08-17T00:39:59.968Z,100319.50
2022-08-17T00:42:30.898Z,100316.22
2022-08-17T00:44:58.901Z,100317.25
2022-08-17T00:47:26.599Z,100304.09
2022-08-17T00:49:54.122Z,100307.06
2022-08-17T00:52:24.822Z,100305.47
2022-08-17T00:54:55.383Z,100299.75
2022-08-17T00:57:31.349Z,100299.53
2022-08-17T01:00:07.380Z,100295.84
2022-08-17T01:02:42.559Z,100302.22
2022-08-17T01:05:18.478Z,100297.69
2022-08-17T01:07:47.944Z,100280.88
2022-08-17T01:11:00.679Z,100296.91
2022-08-17T01:13:04.594Z,100295.47
2022-08-17T01:15:36.584Z,100300.25
2022-08-17T01:18:07.897Z,100288.47
2022-08-17T01:20:48.272Z,100284.59
2022-08-17T01:23:20.791Z,100286.72
2022-08-17T01:25:51.325Z,100291.66
2022-08-17T01:28:52.954Z,100283.81
2022-08-17T01:31:09.268Z,100285.94
2022-08-17T01:33:36.733Z,100284.66
2022-08-17T01:36:07.093Z,100289.38
2022-08-17T01:38:35.356Z,100292.06
2022-08-17T01:41:06.954Z,100271.09
2022-08-17T01:43:47.655Z,100280.13
2022-08-17T01:46:24.367Z,100282.63
2022-08-17T01:48:51.692Z,100274.03
2022-08-17T01:51:20.067Z,100270.28
2022-08-17T01:53:58.400Z,100277.28
2022-08-17T01:56:27.044Z,100286.34
2022-08-17T01:58:54.412Z,100281.44
2022-08-17T02:01:24.905Z,100282.66
2022-08-17T02:03:59.766Z,100283.06
2022-08-17T02:06:45.119Z,100283.47
2022-08-17T02:09:24.001Z,100286.75
2022-08-17T02:11:55.125Z,100284.38
2022-08-17T02:14:24.877Z,100282.28
2022-08-17T02:16:54.122Z,100281.84
2022-08-17T02:19:22.039Z,100270.75
2022-08-17T02:21:51.631Z,100281.06
2022-08-17T02:24:59.328Z,100281.84
2022-08-17T02:27:16.218Z,100283.38
2022-08-17T02:29:43.306Z,100277.41
2022-08-17T02:32:27.390Z,100287.69
2022-08-17T02:34:59.681Z,100283.63
2022-08-17T02:37:28.343Z,100281.09
2022-08-17T02:39:57.311Z,100284.63
2022-08-17T02:42:38.321Z,100282.34
2022-08-17T02:45:16.075Z,100290.13
2022-08-17T02:47:44.183Z,100292.09
2022-08-17T02:50:13.812Z,100281.44
2022-08-17T02:52:44.148Z,100296.72
2022-08-17T02:55:17.110Z,100287.34
2022-08-17T02:57:44.723Z,100282.78
2022-08-17T03:00:19.756Z,100277.28
2022-08-17T03:02:47.572Z,100264.50
2022-08-17T03:05:17.582Z,100279.94
2022-08-17T03:07:44.809Z,100275.63
2022-08-17T03:10:13.015Z,100276.09
2022-08-17T03:12:42.302Z,100281.44
2022-08-17T03:15:16.848Z,100278.09
2022-08-17T03:17:44.605Z,100279.19
2022-08-17T03:20:12.821Z,100283.88
2022-08-17T03:22:48.043Z,100283.91
2022-08-17T03:25:26.706Z,100273.19
2022-08-17T03:27:54.228Z,100274.22
2022-08-17T03:30:22.697Z,100287.22
2022-08-17T03:32:52.765Z,100281.91
2022-08-17T03:35:26.696Z,100285.41
2022-08-17T03:38:00.109Z,100281.06
2022-08-17T03:40:39.875Z,100276.91
2022-08-17T03:43:17.005Z,100266.16
2022-08-17T03:46:02.472Z,100280.56
2022-08-17T03:48:47.939Z,100274.34
2022-08-17T03:51:39.569Z,100282.63
2022-08-17T03:54:25.893Z,100288.66
2022-08-17T03:57:17.099Z,100260.78
2022-08-17T04:00:03.908Z,100281.59
2022-08-17T04:02:39.470Z,100270.88
2022-08-17T04:05:06.789Z,100287.31
2022-08-17T04:07:33.892Z,100281.59
2022-08-17T04:10:01.076Z,100273.44
2022-08-17T04:12:32.044Z,100280.03
2022-08-17T04:14:59.354Z,100271.81
2022-08-17T04:17:28.929Z,100278.00
2022-08-17T04:19:56.604Z,100278.75
2022-08-17T04:22:30.461Z,100279.06
2022-08-17T04:25:18.916Z,100268.78
2022-08-17T04:27:45.982Z,100278.03
2022-08-17T04:30:13.326Z,100269.88
2022-08-17T04:33:09.952Z,100275.41
2022-08-17T04:35:41.856Z,100275.56
2022-08-17T04:38:12.140Z,100273.03
2022-08-17T04:40:58.086Z,100274.41
2022-08-17T04:43:27.154Z,100269.41
2022-08-17T04:46:00.415Z,100267.91
2022-08-17T04:48:49.129Z,100274.09
2022-08-17T04:51:31.268Z,100277.31
2022-08-17T04:54:02.372Z,100266.72
2022-08-17T04:56:30.820Z,100269.41
2022-08-17T04:59:02.624Z,100270.75
2022-08-17T05:01:32.136Z,100268.47
2022-08-17T05:04:32.835Z,100259.72
2022-08-17T05:06:49.885Z,100256.75
2022-08-17T05:09:17.957Z,100261.88
2022-08-17T05:11:46.005Z,100261.59
2022-08-17T05:14:14.457Z,100250.13
2022-08-17T05:16:41.747Z,100252.22
2022-08-17T05:19:08.804Z,100246.19
2022-08-17T05:21:35.907Z,100244.16
2022-08-17T05:24:06.082Z,100246.38
2022-08-17T05:26:51.080Z,100238.72
2022-08-17T05:29:18.932Z,100225.97
2022-08-17T05:31:46.007Z,100237.66
2022-08-17T05:34:13.139Z,100229.78
2022-08-17T05:36:44.100Z,100231.53
2022-08-17T05:39:15.790Z,100235.88
2022-08-17T05:41:45.167Z,100241.16
2022-08-17T05:44:12.204Z,100242.16
2022-08-17T05:46:43.613Z,100229.72
2022-08-17T05:49:13.596Z,100228.88
2022-08-17T05:51:58.714Z,100234.63
2022-08-17T05:54:51.782Z,100238.84
2022-08-17T05:57:53.488Z,100233.84
2022-08-17T06:00:37.542Z,100232.56
2022-08-17T06:03:28.429Z,100234.66
2022-08-17T06:06:09.161Z,100217.91
2022-08-17T06:09:01.164Z,100227.84
2022-08-17T06:11:47.098Z,100225.09
2022-08-17T06:14:35.982Z,100232.03
2022-08-17T06:17:08.838Z,100232.25
2022-08-17T06:19:56.033Z,100231.94
2022-08-17T06:22:28.923Z,100220.03
2022-08-17T06:25:13.451Z,100228.19
2022-08-17T06:28:04.867Z,100232.22
2022-08-17T06:31:00.782Z,100225.13
2022-08-17T06:33:35.435Z,100230.25
2022-08-17T06:36:42.832Z,100225.88
2022-08-17T06:39:37.492Z,100226.06
2022-08-17T06:43:06.179Z,100219.09
2022-08-17T06:45:16.555Z,100227.69
2022-08-17T06:47:47.570Z,100228.75
2022-08-17T06:50:31.432Z,100224.47
2022-08-17T06:53:05.437Z,100201.91
2022-08-17T06:55:55.259Z,100218.53
2022-08-17T06:58:29.605Z,100226.25
2022-08-17T07:01:01.735Z,100202.31
2022-08-17T07:03:48.316Z,100200.19
2022-08-17T07:06:27.595Z,100217.56
2022-08-17T07:09:14.096Z,100211.63
2022-08-17T07:11:48.412Z,100209.09
2022-08-17T07:14:18.523Z,100214.00
2022-08-17T07:16:54.990Z,100215.53
2022-08-17T07:19:26.594Z,100210.50
2022-08-17T07:22:14.113Z,100198.84
2022-08-17T07:24:49.310Z,100203.75
2022-08-17T07:27:22.413Z,100201.94
2022-08-17T07:29:57.594Z,100204.66
2022-08-17T07:32:31.836Z,100194.59
2022-08-17T07:35:11.544Z,100190.41
2022-08-17T07:37:41.379Z,100195.84
2022-08-17T07:40:34.234Z,100193.88
2022-08-17T07:43:23.380Z,100182.75
2022-08-17T07:46:24.000Z,100179.19
2022-08-17T07:48:52.610Z,100185.28
2022-08-17T07:51:28.763Z,100178.25
2022-08-17T07:54:13.638Z,100183.25
2022-08-17T07:57:00.672Z,100167.50
2022-08-17T07:59:41.242Z,100168.81
2022-08-17T08:02:38.294Z,100172.97
2022-08-17T08:05:29.928Z,100172.31
2022-08-17T08:08:19.363Z,100163.72
2022-08-17T08:10:59.300Z,100159.63
2022-08-17T08:13:28.883Z,100153.44
2022-08-17T08:16:24.433Z,100168.75
2022-08-17T08:18:57.214Z,100164.75
2022-08-17T08:21:47.940Z,100168.34
2022-08-17T08:24:47.404Z,100176.44
2022-08-17T08:28:11.809Z,100159.44
2022-08-17T08:30:47.043Z,100164.13
2022-08-17T08:33:20.240Z,100149.47
2022-08-17T08:37:16.030Z,100161.19
2022-08-17T08:39:48.482Z,100154.69
2022-08-17T08:42:50.037Z,100155.88
2022-08-17T08:45:32.285Z,100153.31
2022-08-17T08:48:45.909Z,100157.72
2022-08-17T08:51:32.465Z,100145.59
2022-08-17T08:54:03.467Z,100139.66
2022-08-17T08:56:33.099Z,100145.63
2022-08-17T08:59:08.758Z,100148.31
2022-08-17T09:01:57.138Z,100144.53
2022-08-17T09:05:13.043Z,100144.00
2022-08-17T09:07:33.713Z,100141.28
2022-08-17T09:10:26.947Z,100136.38
2022-08-17T09:13:16.883Z,100119.56
2022-08-17T09:16:11.609Z,100137.47
2022-08-17T09:18:59.983Z,100140.19
2022-08-17T09:21:48.405Z,100139.38
2022-08-17T09:24:29.428Z,100126.63
2022-08-17T09:27:06.585Z,100131.53
2022-08-17T09:29:38.054Z,100132.06
2022-08-17T09:32:17.685Z,100130.97
2022-08-17T09:34:55.352Z,100126.63
2022-08-17T09:37:35.677Z,100123.09
2022-08-17T09:40:25.971Z,100126.88
2022-08-17T09:43:01.471Z,100126.09
2022-08-17T09:45:28.454Z,100133.97
2022-08-17T09:48:23.587Z,100130.97
2022-08-17T09:51:04.749Z,100124.47
2022-08-17T09:53:36.924Z,100133.66
2022-08-17T09:56:13.108Z,100114.69
2022-08-17T09:59:01.276Z,100130.97
2022-08-17T10:01:35.583Z,100128.25
2022-08-17T10:04:08.862Z,100117.94
2022-08-17T10:07:08.218Z,100110.63
2022-08-17T10:09:37.981Z,100123.09
2022-08-17T10:12:17.781Z,100128.50
2022-08-17T10:15:22.606Z,100118.22
2022-08-17T10:18:08.626Z,100122.28
2022-08-17T10:21:15.824Z,100121.50
2022-08-17T10:24:03.461Z,100111.44
2022-08-17T10:26:46.186Z,100114.69
2022-08-17T10:29:50.820Z,100122.84
2022-08-17T10:32:36.490Z,100095.16
2022-08-17T10:35:29.308Z,100117.38
2022-08-17T10:38:24.634Z,100108.69
2022-08-17T10:41:00.487Z,100109.00
2022-08-17T10:43:57.852Z,100095.41
2022-08-17T10:46:49.577Z,100108.72
2022-08-17T10:49:21.183Z,100104.91
2022-08-17T10:52:00.161Z,100104.34
2022-08-17T10:54:35.841Z,100100.03
2022-08-17T10:57:22.933Z,100099.50
2022-08-17T10:59:52.411Z,100098.13
2022-08-17T11:02:19.500Z,100107.06
2022-08-17T11:04:55.417Z,100100.00
2022-08-17T11:07:34.294Z,100103.78
2022-08-17T11:10:09.975Z,100097.84
2022-08-17T11:13:01.384Z,100075.59
2022-08-17T11:15:37.165Z,100093.25
2022-08-17T11:18:13.942Z,100084.81
2022-08-17T11:20:59.682Z,100083.44
2022-08-17T11:23:57.941Z,100085.38
2022-08-17T11:26:32.062Z,100080.47
2022-08-17T11:29:16.920Z,100088.09
2022-08-17T11:31:58.521Z,100078.84
2022-08-17T11:34:28.951Z,100088.59
2022-08-17T11:37:14.591Z,100071.78
2022-08-17T11:39:44.454Z,100075.59
2022-08-17T11:42:48.807Z,100079.91
2022-08-17T11:45:46.122Z,100058.19
2022-08-17T11:48:50.433Z,100078.31
2022-08-17T11:51:35.333Z,100075.06
2022-08-17T11:57:00.555Z,100069.03
2022-08-17T11:59:33.347Z,100066.59
2022-08-17T12:02:02.196Z,100061.16
2022-08-17T12:04:34.935Z,100049.50
2022-08-17T12:07:18.597Z,100044.88
2022-08-17T12:09:49.381Z,100042.44
2022-08-17T12:12:17.844Z,100047.88
2022-08-17T12:15:11.491Z,100055.50
2022-08-17T12:17:42.744Z,100051.69
2022-08-17T12:20:27.941Z,100044.63
2022-08-17T12:23:04.918Z,100058.22
2022-08-17T12:25:41.989Z,100047.88
2022-08-17T12:28:23.899Z,100046.28
2022-08-17T12:30:52.114Z,100047.34
2022-08-17T12:33:25.221Z,100053.84
2022-08-17T12:36:03.310Z,100056.56
2022-08-17T12:38:36.252Z,100039.22
2022-08-17T12:41:25.485Z,100032.69
2022-08-17T12:43:56.826Z,100031.06
2022-08-17T12:46:23.881Z,100045.75
2022-08-17T12:48:59.293Z,100049.50
2022-08-17T12:51:29.269Z,100032.97
2022-08-17T12:53:57.454Z,100038.66
2022-08-17T12:56:24.767Z,100035.41
2022-08-17T12:58:55.678Z,100025.88
2022-08-17T13:01:25.507Z,100040.28
2022-08-17T13:03:55.165Z,100039.22
2022-08-17T13:06:37.844Z,100031.88
2022-08-17T13:09:14.336Z,100038.63
2022-08-17T13:11:56.741Z,100046.25
2022-08-17T13:14:23.884Z,100038.69
2022-08-17T13:17:02.011Z,100026.44
2022-08-17T13:19:39.850Z,100036.47
2022-08-17T13:22:12.642Z,100024.25
2022-08-17T13:24:53.215Z,100030.22
2022-08-17T13:27:22.811Z,100031.31
2022-08-17T13:29:54.046Z,100016.38
2022-08-17T13:32:23.306Z,100028.88
2022-08-17T13:35:14.461Z,100022.38
2022-08-17T13:37:57.834Z,100027.78
2022-08-17T13:40:29.213Z,100029.97
2022-08-17T13:42:57.417Z,100010.41
2022-08-17T13:45:34.897Z,100028.34
2022-08-17T13:48:13.533Z,100024.28
2022-08-17T13:51:02.570Z,100029.97
2022-08-17T13:53:36.915Z,100028.34
2022-08-17T13:56:53.342Z,100028.31
2022-08-17T13:59:53.552Z,100020.16
2022-08-17T14:02:22.143Z,100017.47
2022-08-17T14:04:49.297Z,100022.91
2022-08-17T14:07:18.286Z,100027.53
2022-08-17T14:10:10.456Z,100021.00
2022-08-17T14:12:41.089Z,100024.81
2022-08-17T14:15:09.474Z,100016.94
2022-08-17T14:17:39.119Z,100027.53
2022-08-17T14:20:12.256Z,100015.31
2022-08-17T14:22:44.119Z,100018.28
2022-08-17T14:25:14.037Z,100015.34
2022-08-17T14:27:47.479Z,100002.09
2022-08-17T14:30:29.058Z,100018.63
2022-08-17T14:32:58.553Z,100015.88
2022-08-17T14:35:27.924Z,100018.63
2022-08-17T14:37:55.643Z,100022.97
2022-08-17T14:40:25.067Z,100016.44
2022-08-17T14:42:53.786Z,100009.34
2022-08-17T14:45:32.370Z,100020.78
2022-08-17T14:48:04.277Z,100017.56
2022-08-17T14:50:32.137Z,100025.41
2022-08-17T14:53:04.567Z,100015.63
2022-08-17T14:55:32.652Z,100002.34
2022-08-17T14:57:59.776Z,100007.22
2022-08-17T15:00:27.283Z,100021.88
2022-08-17T15:02:58.142Z,100009.94
2022-08-17T15:05:31.601Z,99995.31
2022-08-17T15:08:01.005Z,100009.34
2022-08-17T15:10:29.381Z,100012.06
2022-08-17T15:12:58.366Z,100005.06
2022-08-17T15:15:26.027Z,100011.00
2022-08-17T15:17:53.321Z,100014.25
2022-08-17T15:20:28.119Z,100006.66
2022-08-17T15:22:57.505Z,100012.13
2022-08-17T15:25:27.606Z,100012.13
2022-08-17T15:27:56.088Z,100012.94
2022-08-17T15:30:24.576Z,100006.69
2022-08-17T15:32:55.181Z,100006.69
2022-08-17T15:35:28.352Z,100005.06
2022-08-17T15:38:08.104Z,100006.16
2022-08-17T15:40:41.846Z,100000.16
2022-08-17T15:43:14.370Z,100009.13
2022-08-17T15:45:41.945Z,100002.59
2022-08-17T15:48:09.271Z,100005.88
2022-08-17T15:50:37.364Z,100012.66
2022-08-17T15:53:05.068Z,100009.69
2022-08-17T15:55:33.246Z,100011.31
2022-08-17T15:58:00.977Z,100015.38
2022-08-17T16:00:29.537Z,99985.81
2022-08-17T16:03:46.007Z,100001.84
2022-08-17T16:05:47.899Z,100009.69
2022-08-17T16:08:20.671Z,100008.31
2022-08-17T16:10:49.399Z,100002.88
2022-08-17T16:13:18.218Z,100008.28
2022-08-17T16:15:56.633Z,100009.41
2022-08-17T16:18:27.460Z,100019.13
2022-08-17T16:20:55.129Z,100020.78
2022-08-17T16:23:22.730Z,100015.34
2022-08-17T16:25:53.797Z,100008.56
2022-08-17T16:28:21.915Z,100003.97
2022-08-17T16:30:49.237Z,100023.22
2022-08-17T16:33:17.056Z,100019.16
2022-08-17T16:35:44.249Z,99996.31
2022-08-17T16:38:12.538Z,100022.34
2022-08-17T16:40:40.566Z,100026.41
2022-08-17T16:43:10.703Z,100014.22
2022-08-17T16:45:40.555Z,100022.84
2022-08-17T16:48:08.705Z,100023.41
2022-08-17T16:50:37.113Z,100020.13
2022-08-17T16:53:08.172Z,100020.38
2022-08-17T16:55:35.842Z,100014.94
2022-08-17T16:58:05.559Z,100020.59
2022-08-17T17:00:34.115Z,100024.38
2022-08-17T17:03:29.452Z,100026.53
2022-08-17T17:06:13.691Z,100031.91
2022-08-17T17:08:52.219Z,100029.16
2022-08-17T17:11:34.502Z,100028.63
2022-08-17T17:14:05.485Z,100032.06
2022-08-17T17:17:08.839Z,100025.84
2022-08-17T17:19:41.401Z,100032.31
2022-08-17T17:22:23.699Z,100037.69
2022-08-17T17:25:30.284Z,100035.22
2022-08-17T17:28:22.520Z,100029.56
2022-08-17T17:31:03.563Z,100037.91
2022-08-17T17:33:50.292Z,100033.84
2022-08-17T17:36:50.135Z,100027.59
2022-08-17T17:39:22.135Z,100022.44
2022-08-17T17:41:54.351Z,100025.13
2022-08-17T17:44:37.932Z,100017.53
2022-08-17T17:47:05.484Z,100025.09
2022-08-17T17:49:41.586Z,100022.38
2022-08-17T17:52:30.946Z,100026.66
2022-08-17T17:54:57.950Z,100019.34
2022-08-17T17:57:33.780Z,100016.91
2022-08-17T18:00:06.716Z,100019.53
2022-08-17T18:02:51.458Z,100016.88
2022-08-17T18:05:44.552Z,100010.66
2022-08-17T18:08:34.072Z,100015.75
2022-08-17T18:11:14.083Z,100011.97
2022-08-17T18:13:56.459Z,100013.84
2022-08-17T18:16:24.229Z,100010.59
2022-08-17T18:18:52.630Z,100009.72
2022-08-17T18:21:23.685Z,100011.78
2022-08-17T18:24:05.900Z,100010.69
2022-08-17T18:26:33.039Z,100006.59
2022-08-17T18:29:01.999Z,99983.50
2022-08-17T18:31:29.427Z,100007.59
2022-08-17T18:37:16.108Z,100011.56
2022-08-17T18:39:46.766Z,100014.00
2022-08-17T18:42:26.822Z,100008.28
2022-08-17T18:44:55.438Z,100011.00
2022-08-17T18:47:27.012Z,100016.16
2022-08-17T18:49:58.152Z,100005.25
2022-08-17T18:52:31.808Z,99987.63
2022-08-17T18:55:13.368Z,100009.84
2022-08-17T18:57:50.882Z,100009.50
2022-08-17T19:00:30.152Z,100009.72
2022-08-17T19:03:02.145Z,99987.66
2022-08-17T19:05:29.279Z,100005.31
2022-08-17T19:08:14.204Z,100003.59
2022-08-17T19:10:46.524Z,100004.06
2022-08-17T19:13:40.856Z,100001.13
2022-08-17T19:16:31.270Z,100011.63
2022-08-17T19:18:58.721Z,100007.81
2022-08-17T19:21:36.164Z,99989.28
2022-08-17T19:24:10.260Z,100004.28
2022-08-17T19:26:54.600Z,100006.66
2022-08-17T19:29:37.122Z,100001.22
2022-08-17T19:32:06.692Z,99998.97
2022-08-17T19:34:36.706Z,100007.06
2022-08-17T19:37:32.596Z,100004.88
2022-08-17T19:40:53.299Z,100012.28
2022-08-17T19:43:30.718Z,100008.75
2022-08-17T19:46:12.616Z,100007.88
2022-08-17T19:48:56.445Z,100010.34
2022-08-17T19:51:44.774Z,100012.78
2022-08-17T19:54:44.884Z,100012.78
2022-08-17T19:57:25.511Z,99990.91
2022-08-17T20:00:06.950Z,100000.63
2022-08-17T20:02:52.505Z,100017.88
2022-08-17T20:05:19.500Z,100016.75
2022-08-17T20:07:58.385Z,100020.44
2022-08-17T20:10:38.845Z,100023.47
2022-08-17T20:13:11.418Z,100024.16
2022-08-17T20:15:42.555Z,100024.69
2022-08-17T20:18:18.441Z,100027.56
2022-08-17T20:20:59.131Z,100031.56
2022-08-17T20:23:56.136Z,100033.63
2022-08-17T20:26:35.100Z,100033.63
2022-08-17T20:29:14.371Z,100037.91
2022-08-17T20:31:55.589Z,100040.50
2022-08-17T20:34:25.609Z,100042.63
2022-08-17T20:37:20.090Z,100048.19
2022-08-17T20:39:50.089Z,100040.59
2022-08-17T20:42:20.154Z,100039.44
2022-08-17T20:44:53.585Z,100024.69
2022-08-17T20:47:29.445Z,100046.25
2022-08-17T20:50:03.017Z,100052.78
2022-08-17T20:52:45.935Z,100049.59
2022-08-17T20:55:35.435Z,100054.34
2022-08-17T20:58:17.154Z,100051.44
2022-08-17T21:00:46.858Z,100055.03
2022-08-17T21:03:47.633Z,100064.63
2022-08-17T21:06:18.538Z,100049.94
2022-08-17T21:08:54.494Z,100059.88
2022-08-17T21:11:58.263Z,100061.22
2022-08-17T21:14:33.184Z,100050.44
2022-08-17T21:17:17.715Z,100053.03
2022-08-17T21:20:14.612Z,100054.06
2022-08-17T21:23:06.572Z,100054.00
2022-08-17T21:25:57.867Z,100052.38
2022-08-17T21:28:37.049Z,100051.19
2022-08-17T21:31:34.346Z,100053.34
2022-08-17T21:34:16.893Z,100058.47
2022-08-17T21:36:47.159Z,100057.09
2022-08-17T21:39:15.842Z,100060.34
2022-08-17T21:41:55.751Z,100062.13
2022-08-17T21:44:35.314Z,100057.22
2022-08-17T21:47:24.301Z,100048.16
2022-08-17T21:49:52.944Z,100063.34
2022-08-17T21:52:23.867Z,100060.66
2022-08-17T21:54:54.884Z,100037.69
2022-08-17T21:57:27.635Z,100060.78
2022-08-17T22:00:01.529Z,100064.53
2022-08-17T22:02:36.508Z,100049.69
2022-08-17T22:05:11.165Z,100074.25
2022-08-17T22:07:44.401Z,100068.88
2022-08-17T22:10:40.108Z,100056.16
2022-08-17T22:13:16.991Z,100063.16
2022-08-17T22:15:51.043Z,100070.56
2022-08-17T22:18:27.753Z,100061.44
2022-08-17T22:21:02.569Z,100061.13
2022-08-17T22:24:01.383Z,100063.31
2022-08-17T22:27:08.880Z,100066.59
2022-08-17T22:29:58.130Z,100059.03
2022-08-17T22:32:45.191Z,100076.69
2022-08-17T22:35:32.858Z,100077.63
2022-08-17T22:38:18.404Z,100068.97
2022-08-17T22:40:49.845Z,100064.06
2022-08-17T22:43:24.239Z,100069.94
2022-08-17T22:45:56.180Z,100071.22
2022-08-17T22:48:27.476Z,100068.06
2022-08-17T22:51:12.817Z,100060.06
2022-08-17T22:54:08.392Z,100082.78
2022-08-17T22:57:11.760Z,100071.19
2022-08-17T22:59:47.488Z,100071.16
2022-08-17T23:02:16.983Z,100075.50
2022-08-17T23:04:59.185Z,100081.09
2022-08-17T23:07:26.228Z,100090.81
2022-08-17T23:09:53.667Z,100087.97
2022-08-17T23:12:26.479Z,100087.38
2022-08-17T23:15:00.709Z,100088.44
2022-08-17T23:17:31.912Z,100086.69
2022-08-17T23:20:02.782Z,100082.13
2022-08-17T23:22:33.081Z,100080.47
2022-08-17T23:25:00.196Z,100079.88
2022-08-17T23:27:29.409Z,100097.16
2022-08-17T23:29:56.494Z,100068.56
2022-08-17T23:32:24.885Z,100070.78
2022-08-17T23:34:52.236Z,100099.25
2022-08-17T23:37:19.977Z,100098.53
2022-08-17T23:39:47.201Z,100089.22
2022-08-17T23:42:21.793Z,100097.38
2022-08-17T23:44:49.540Z,100092.88
2022-08-17T23:47:16.623Z,100087.94
2022-08-17T23:49:43.760Z,100102.06
2022-08-17T23:52:16.523Z,100092.63
2022-08-17T23:54:46.735Z,100096.81
2022-08-17T23:57:17.090Z,100100.09
2022-08-17T23:59:44.522Z,100106.81
